sensor_id;sensor_type;location;lat;lon;timestamp;temperature;humidity
65374;SHT31;52070;53.760;9.678;2023-02-28T00:00:00;3.56;81.21
65374;SHT31;52070;53.760;9.678;2023-02-28T00:02:34;3.55;81.32
65374;SHT31;52070;53.760;9.678;2023-02-28T00:05:01;3.54;81.28
65374;SHT31;52070;53.760;9.678;2023-02-28T00:07:29;3.52;80.92
65374;SHT31;52070;53.760;9.678;2023-02-28T00:09:56;3.51;80.97
65374;SHT31;52070;53.760;9.678;2023-02-28T00:12:24;3.55;81.00
65374;SHT31;52070;53.760;9.678;2023-02-28T00:14:51;3.56;81.15
65374;SHT31;52070;53.760;9.678;2023-02-28T00:17:18;3.52;81.40
65374;SHT31;52070;53.760;9.678;2023-02-28T00:19:47;3.48;81.50
65374;SHT31;52070;53.760;9.678;2023-02-28T00:22:15;3.42;81.64
65374;SHT31;52070;53.760;9.678;2023-02-28T00:24:42;3.40;81.50
65374;SHT31;52070;53.760;9.678;2023-02-28T00:27:09;3.42;81.66
65374;SHT31;52070;53.760;9.678;2023-02-28T00:29:38;3.42;81.71
65374;SHT31;52070;53.760;9.678;2023-02-28T00:32:05;3.40;81.77
65374;SHT31;52070;53.760;9.678;2023-02-28T00:34:32;3.34;81.80
65374;SHT31;52070;53.760;9.678;2023-02-28T00:37:04;3.34;81.77
65374;SHT31;52070;53.760;9.678;2023-02-28T00:39:33;3.34;81.71
65374;SHT31;52070;53.760;9.678;2023-02-28T00:42:01;3.34;81.57
65374;SHT31;52070;53.760;9.678;2023-02-28T00:44:28;3.39;82.01
65374;SHT31;52070;53.760;9.678;2023-02-28T00:46:56;3.35;82.24
65374;SHT31;52070;53.760;9.678;2023-02-28T00:49:24;3.35;82.10
65374;SHT31;52070;53.760;9.678;2023-02-28T00:51:51;3.31;82.10
65374;SHT31;52070;53.760;9.678;2023-02-28T00:54:19;3.28;82.27
65374;SHT31;52070;53.760;9.678;2023-02-28T00:56:46;3.25;82.51
65374;SHT31;52070;53.760;9.678;2023-02-28T00:59:13;3.26;82.55
65374;SHT31;52070;53.760;9.678;2023-02-28T01:01:40;3.22;82.33
65374;SHT31;52070;53.760;9.678;2023-02-28T01:04:09;3.22;82.33
65374;SHT31;52070;53.760;9.678;2023-02-28T01:06:36;3.24;82.33
65374;SHT31;52070;53.760;9.678;2023-02-28T01:09:05;3.21;82.30
65374;SHT31;52070;53.760;9.678;2023-02-28T01:11:33;3.21;82.34
65374;SHT31;52070;53.760;9.678;2023-02-28T01:14:01;3.18;82.26
65374;SHT31;52070;53.760;9.678;2023-02-28T01:16:28;3.18;82.08
65374;SHT31;52070;53.760;9.678;2023-02-28T01:18:55;3.18;82.09
65374;SHT31;52070;53.760;9.678;2023-02-28T01:21:24;3.16;81.93
65374;SHT31;52070;53.760;9.678;2023-02-28T01:23:51;3.14;81.83
65374;SHT31;52070;53.760;9.678;2023-02-28T01:26:19;3.14;81.68
65374;SHT31;52070;53.760;9.678;2023-02-28T01:28:47;3.11;81.66
65374;SHT31;52070;53.760;9.678;2023-02-28T01:31:15;3.09;81.53
65374;SHT31;52070;53.760;9.678;2023-02-28T01:33:42;3.11;81.40
65374;SHT31;52070;53.760;9.678;2023-02-28T01:36:11;3.08;80.97
65374;SHT31;52070;53.760;9.678;2023-02-28T01:38:40;3.04;81.09
65374;SHT31;52070;53.760;9.678;2023-02-28T01:41:07;3.04;81.34
65374;SHT31;52070;53.760;9.678;2023-02-28T01:43:54;2.98;81.67
65374;SHT31;52070;53.760;9.678;2023-02-28T01:46:22;3.01;81.87
65374;SHT31;52070;53.760;9.678;2023-02-28T01:48:51;3.00;82.15
65374;SHT31;52070;53.760;9.678;2023-02-28T01:51:22;2.97;82.38
65374;SHT31;52070;53.760;9.678;2023-02-28T01:53:54;2.95;82.51
65374;SHT31;52070;53.760;9.678;2023-02-28T01:56:24;2.91;82.60
65374;SHT31;52070;53.760;9.678;2023-02-28T01:58:53;2.87;82.71
65374;SHT31;52070;53.760;9.678;2023-02-28T02:01:22;2.88;82.67
65374;SHT31;52070;53.760;9.678;2023-02-28T02:03:51;2.88;82.65
65374;SHT31;52070;53.760;9.678;2023-02-28T02:06:21;2.85;82.69
65374;SHT31;52070;53.760;9.678;2023-02-28T02:08:47;2.85;82.64
65374;SHT31;52070;53.760;9.678;2023-02-28T02:11:17;2.84;82.63
65374;SHT31;52070;53.760;9.678;2023-02-28T02:13:57;2.83;82.69
65374;SHT31;52070;53.760;9.678;2023-02-28T02:16:36;2.80;82.66
65374;SHT31;52070;53.760;9.678;2023-02-28T02:19:16;2.76;83.07
65374;SHT31;52070;53.760;9.678;2023-02-28T02:22:26;2.80;83.12
65374;SHT31;52070;53.760;9.678;2023-02-28T02:25:13;2.74;83.14
65374;SHT31;52070;53.760;9.678;2023-02-28T02:31:06;2.70;83.57
65374;SHT31;52070;53.760;9.678;2023-02-28T02:34:10;2.70;83.57
65374;SHT31;52070;53.760;9.678;2023-02-28T02:36:47;2.68;83.81
65374;SHT31;52070;53.760;9.678;2023-02-28T02:39:19;2.68;83.83
65374;SHT31;52070;53.760;9.678;2023-02-28T02:41:52;2.70;83.83
65374;SHT31;52070;53.760;9.678;2023-02-28T02:44:22;2.67;83.74
65374;SHT31;52070;53.760;9.678;2023-02-28T02:46:51;2.70;83.64
65374;SHT31;52070;53.760;9.678;2023-02-28T02:49:24;2.67;83.42
65374;SHT31;52070;53.760;9.678;2023-02-28T02:51:53;2.63;83.57
65374;SHT31;52070;53.760;9.678;2023-02-28T02:54:24;2.63;83.80
65374;SHT31;52070;53.760;9.678;2023-02-28T02:56:56;2.70;83.74
65374;SHT31;52070;53.760;9.678;2023-02-28T02:59:25;2.70;83.31
65374;SHT31;52070;53.760;9.678;2023-02-28T03:01:57;2.67;83.02
65374;SHT31;52070;53.760;9.678;2023-02-28T03:04:29;2.67;82.94
65374;SHT31;52070;53.760;9.678;2023-02-28T03:06:57;2.63;82.26
65374;SHT31;52070;53.760;9.678;2023-02-28T03:09:25;2.61;81.61
65374;SHT31;52070;53.760;9.678;2023-02-28T03:11:54;2.61;81.42
65374;SHT31;52070;53.760;9.678;2023-02-28T03:14:28;2.61;81.30
65374;SHT31;52070;53.760;9.678;2023-02-28T03:17:20;2.61;81.09
65374;SHT31;52070;53.760;9.678;2023-02-28T03:20:02;2.60;80.59
65374;SHT31;52070;53.760;9.678;2023-02-28T03:22:46;2.61;80.54
65374;SHT31;52070;53.760;9.678;2023-02-28T03:25:21;2.61;80.12
65374;SHT31;52070;53.760;9.678;2023-02-28T03:28:00;2.60;80.07
65374;SHT31;52070;53.760;9.678;2023-02-28T03:30:36;2.63;80.50
65374;SHT31;52070;53.760;9.678;2023-02-28T03:33:09;2.56;80.96
65374;SHT31;52070;53.760;9.678;2023-02-28T03:35:42;2.52;81.33
65374;SHT31;52070;53.760;9.678;2023-02-28T03:38:15;2.46;81.96
65374;SHT31;52070;53.760;9.678;2023-02-28T03:40:48;2.40;82.18
65374;SHT31;52070;53.760;9.678;2023-02-28T03:43:22;2.36;82.41
65374;SHT31;52070;53.760;9.678;2023-02-28T03:45:51;2.34;82.30
65374;SHT31;52070;53.760;9.678;2023-02-28T03:48:22;2.33;82.08
65374;SHT31;52070;53.760;9.678;2023-02-28T03:50:54;2.32;81.80
65374;SHT31;52070;53.760;9.678;2023-02-28T03:53:25;2.34;81.82
65374;SHT31;52070;53.760;9.678;2023-02-28T03:55:57;2.37;81.70
65374;SHT31;52070;53.760;9.678;2023-02-28T03:58:30;2.34;81.59
65374;SHT31;52070;53.760;9.678;2023-02-28T04:01:02;2.32;81.55
65374;SHT31;52070;53.760;9.678;2023-02-28T04:03:35;2.30;81.55
65374;SHT31;52070;53.760;9.678;2023-02-28T04:06:04;2.29;81.54
65374;SHT31;52070;53.760;9.678;2023-02-28T04:08:32;2.28;81.75
65374;SHT31;52070;53.760;9.678;2023-02-28T04:11:01;2.30;82.06
65374;SHT31;52070;53.760;9.678;2023-02-28T04:13:30;2.30;82.07
65374;SHT31;52070;53.760;9.678;2023-02-28T04:15:57;2.30;82.27
65374;SHT31;52070;53.760;9.678;2023-02-28T04:18:24;2.30;82.31
65374;SHT31;52070;53.760;9.678;2023-02-28T04:20:51;2.33;82.33
65374;SHT31;52070;53.760;9.678;2023-02-28T04:23:19;2.33;82.32
65374;SHT31;52070;53.760;9.678;2023-02-28T04:25:46;2.39;82.30
65374;SHT31;52070;53.760;9.678;2023-02-28T04:28:13;2.34;82.08
65374;SHT31;52070;53.760;9.678;2023-02-28T04:30:40;2.32;82.04
65374;SHT31;52070;53.760;9.678;2023-02-28T04:33:07;2.30;82.07
65374;SHT31;52070;53.760;9.678;2023-02-28T04:35:34;2.33;82.14
65374;SHT31;52070;53.760;9.678;2023-02-28T04:38:01;2.33;82.09
65374;SHT31;52070;53.760;9.678;2023-02-28T04:40:29;2.28;82.06
65374;SHT31;52070;53.760;9.678;2023-02-28T04:42:56;2.23;82.14
65374;SHT31;52070;53.760;9.678;2023-02-28T04:45:23;2.22;82.13
65374;SHT31;52070;53.760;9.678;2023-02-28T04:47:50;2.18;82.27
65374;SHT31;52070;53.760;9.678;2023-02-28T04:50:17;2.15;82.41
65374;SHT31;52070;53.760;9.678;2023-02-28T04:52:44;2.09;82.64
65374;SHT31;52070;53.760;9.678;2023-02-28T04:55:10;2.03;82.70
65374;SHT31;52070;53.760;9.678;2023-02-28T04:57:39;2.03;82.94
65374;SHT31;52070;53.760;9.678;2023-02-28T05:00:09;2.06;82.89
65374;SHT31;52070;53.760;9.678;2023-02-28T05:02:37;2.08;82.82
65374;SHT31;52070;53.760;9.678;2023-02-28T05:05:05;2.08;82.83
65374;SHT31;52070;53.760;9.678;2023-02-28T05:07:32;2.05;82.86
65374;SHT31;52070;53.760;9.678;2023-02-28T05:09:59;2.03;82.96
65374;SHT31;52070;53.760;9.678;2023-02-28T05:12:26;1.94;83.20
65374;SHT31;52070;53.760;9.678;2023-02-28T05:14:54;1.92;83.38
65374;SHT31;52070;53.760;9.678;2023-02-28T05:17:32;1.86;83.42
65374;SHT31;52070;53.760;9.678;2023-02-28T05:19:59;1.81;83.53
65374;SHT31;52070;53.760;9.678;2023-02-28T05:22:26;1.81;83.65
65374;SHT31;52070;53.760;9.678;2023-02-28T05:24:53;1.81;83.63
65374;SHT31;52070;53.760;9.678;2023-02-28T05:27:19;1.79;83.50
65374;SHT31;52070;53.760;9.678;2023-02-28T05:29:46;1.71;83.46
65374;SHT31;52070;53.760;9.678;2023-02-28T05:32:15;1.62;83.43
65374;SHT31;52070;53.760;9.678;2023-02-28T05:34:41;1.52;83.34
65374;SHT31;52070;53.760;9.678;2023-02-28T05:37:12;1.45;83.36
65374;SHT31;52070;53.760;9.678;2023-02-28T05:39:39;1.37;83.41
65374;SHT31;52070;53.760;9.678;2023-02-28T05:42:06;1.33;83.45
65374;SHT31;52070;53.760;9.678;2023-02-28T05:44:33;1.26;83.57
65374;SHT31;52070;53.760;9.678;2023-02-28T05:47:00;1.14;83.68
65374;SHT31;52070;53.760;9.678;2023-02-28T05:49:29;1.05;83.89
65374;SHT31;52070;53.760;9.678;2023-02-28T05:51:55;0.90;84.24
65374;SHT31;52070;53.760;9.678;2023-02-28T05:54:22;0.77;84.43
65374;SHT31;52070;53.760;9.678;2023-02-28T05:56:49;0.66;84.78
65374;SHT31;52070;53.760;9.678;2023-02-28T05:59:16;0.62;85.11
65374;SHT31;52070;53.760;9.678;2023-02-28T06:01:45;0.56;85.31
65374;SHT31;52070;53.760;9.678;2023-02-28T06:04:15;0.50;85.28
65374;SHT31;52070;53.760;9.678;2023-02-28T06:06:44;0.44;85.00
65374;SHT31;52070;53.760;9.678;2023-02-28T06:09:12;0.38;85.06
65374;SHT31;52070;53.760;9.678;2023-02-28T06:11:39;0.26;85.45
65374;SHT31;52070;53.760;9.678;2023-02-28T06:14:06;0.22;85.79
65374;SHT31;52070;53.760;9.678;2023-02-28T06:16:34;0.18;85.57
65374;SHT31;52070;53.760;9.678;2023-02-28T06:19:03;0.11;85.34
65374;SHT31;52070;53.760;9.678;2023-02-28T06:21:31;0.05;85.30
65374;SHT31;52070;53.760;9.678;2023-02-28T06:23:59;-0.02;85.16
65374;SHT31;52070;53.760;9.678;2023-02-28T06:26:26;-0.06;85.23
65374;SHT31;52070;53.760;9.678;2023-02-28T06:28:54;-0.09;85.50
65374;SHT31;52070;53.760;9.678;2023-02-28T06:31:21;-0.13;85.85
65374;SHT31;52070;53.760;9.678;2023-02-28T06:33:49;-0.20;85.76
65374;SHT31;52070;53.760;9.678;2023-02-28T06:36:16;-0.23;85.72
65374;SHT31;52070;53.760;9.678;2023-02-28T06:38:44;-0.23;85.75
65374;SHT31;52070;53.760;9.678;2023-02-28T06:41:12;-0.26;86.01
65374;SHT31;52070;53.760;9.678;2023-02-28T06:43:41;-0.24;86.24
65374;SHT31;52070;53.760;9.678;2023-02-28T06:46:11;-0.23;86.39
65374;SHT31;52070;53.760;9.678;2023-02-28T06:48:39;-0.23;86.76
65374;SHT31;52070;53.760;9.678;2023-02-28T06:51:08;-0.26;86.78
65374;SHT31;52070;53.760;9.678;2023-02-28T06:53:35;-0.24;86.66
65374;SHT31;52070;53.760;9.678;2023-02-28T06:56:07;-0.22;86.57
65374;SHT31;52070;53.760;9.678;2023-02-28T06:58:36;-0.20;86.43
65374;SHT31;52070;53.760;9.678;2023-02-28T07:01:04;-0.12;86.63
65374;SHT31;52070;53.760;9.678;2023-02-28T07:03:31;-0.05;86.81
65374;SHT31;52070;53.760;9.678;2023-02-28T07:05:58;0.07;86.86
65374;SHT31;52070;53.760;9.678;2023-02-28T07:08:25;0.14;86.75
65374;SHT31;52070;53.760;9.678;2023-02-28T07:10:53;0.22;86.48
65374;SHT31;52070;53.760;9.678;2023-02-28T07:13:21;0.26;86.23
65374;SHT31;52070;53.760;9.678;2023-02-28T07:15:57;0.38;85.91
65374;SHT31;52070;53.760;9.678;2023-02-28T07:18:25;0.46;85.53
65374;SHT31;52070;53.760;9.678;2023-02-28T07:20:52;0.50;85.21
65374;SHT31;52070;53.760;9.678;2023-02-28T07:23:19;0.55;85.16
65374;SHT31;52070;53.760;9.678;2023-02-28T07:25:46;0.60;84.97
65374;SHT31;52070;53.760;9.678;2023-02-28T07:28:13;0.68;84.76
65374;SHT31;52070;53.760;9.678;2023-02-28T07:30:41;0.79;84.39
65374;SHT31;52070;53.760;9.678;2023-02-28T07:33:09;0.80;84.15
65374;SHT31;52070;53.760;9.678;2023-02-28T07:35:36;0.84;83.95
65374;SHT31;52070;53.760;9.678;2023-02-28T07:38:03;0.94;83.58
65374;SHT31;52070;53.760;9.678;2023-02-28T07:40:30;1.08;83.05
65374;SHT31;52070;53.760;9.678;2023-02-28T07:42:59;1.23;82.06
65374;SHT31;52070;53.760;9.678;2023-02-28T07:45:27;1.31;81.29
65374;SHT31;52070;53.760;9.678;2023-02-28T07:47:55;1.47;80.68
65374;SHT31;52070;53.760;9.678;2023-02-28T07:50:23;1.51;80.26
65374;SHT31;52070;53.760;9.678;2023-02-28T07:52:50;1.57;79.43
65374;SHT31;52070;53.760;9.678;2023-02-28T07:55:17;1.67;79.16
65374;SHT31;52070;53.760;9.678;2023-02-28T07:57:44;1.78;79.00
65374;SHT31;52070;53.760;9.678;2023-02-28T08:00:12;1.82;78.38
65374;SHT31;52070;53.760;9.678;2023-02-28T08:02:39;1.94;77.76
65374;SHT31;52070;53.760;9.678;2023-02-28T08:05:07;1.96;76.95
65374;SHT31;52070;53.760;9.678;2023-02-28T08:07:35;2.16;75.83
65374;SHT31;52070;53.760;9.678;2023-02-28T08:10:02;2.25;75.78
65374;SHT31;52070;53.760;9.678;2023-02-28T08:12:31;2.40;74.77
65374;SHT31;52070;53.760;9.678;2023-02-28T08:14:58;2.47;74.30
65374;SHT31;52070;53.760;9.678;2023-02-28T08:17:25;2.58;73.31
65374;SHT31;52070;53.760;9.678;2023-02-28T08:19:52;2.68;72.80
65374;SHT31;52070;53.760;9.678;2023-02-28T08:22:19;2.74;73.45
65374;SHT31;52070;53.760;9.678;2023-02-28T08:24:47;2.77;73.01
65374;SHT31;52070;53.760;9.678;2023-02-28T08:27:14;2.80;73.09
65374;SHT31;52070;53.760;9.678;2023-02-28T08:29:41;2.81;73.55
65374;SHT31;52070;53.760;9.678;2023-02-28T08:32:08;2.85;73.34
65374;SHT31;52070;53.760;9.678;2023-02-28T08:34:36;2.95;72.74
65374;SHT31;52070;53.760;9.678;2023-02-28T08:37:05;3.05;72.14
65374;SHT31;52070;53.760;9.678;2023-02-28T08:39:34;3.12;72.44
65374;SHT31;52070;53.760;9.678;2023-02-28T08:42:02;3.19;71.26
65374;SHT31;52070;53.760;9.678;2023-02-28T08:44:30;3.24;71.68
65374;SHT31;52070;53.760;9.678;2023-02-28T08:46:57;3.26;71.51
65374;SHT31;52070;53.760;9.678;2023-02-28T08:49:24;3.24;71.93
65374;SHT31;52070;53.760;9.678;2023-02-28T08:51:51;3.29;71.10
65374;SHT31;52070;53.760;9.678;2023-02-28T08:54:18;3.45;70.93
65374;SHT31;52070;53.760;9.678;2023-02-28T08:56:45;3.45;70.09
65374;SHT31;52070;53.760;9.678;2023-02-28T08:59:14;3.45;71.15
65374;SHT31;52070;53.760;9.678;2023-02-28T09:01:41;3.48;71.32
65374;SHT31;52070;53.760;9.678;2023-02-28T09:04:09;3.55;70.85
65374;SHT31;52070;53.760;9.678;2023-02-28T09:06:37;3.68;71.00
65374;SHT31;52070;53.760;9.678;2023-02-28T09:09:04;3.82;71.33
65374;SHT31;52070;53.760;9.678;2023-02-28T09:11:33;3.87;70.46
65374;SHT31;52070;53.760;9.678;2023-02-28T09:14:01;4.00;70.22
65374;SHT31;52070;53.760;9.678;2023-02-28T09:16:31;4.01;70.28
65374;SHT31;52070;53.760;9.678;2023-02-28T09:18:58;4.10;69.73
65374;SHT31;52070;53.760;9.678;2023-02-28T09:21:26;4.10;69.98
65374;SHT31;52070;53.760;9.678;2023-02-28T09:23:53;4.11;70.29
65374;SHT31;52070;53.760;9.678;2023-02-28T09:26:21;4.14;70.54
65374;SHT31;52070;53.760;9.678;2023-02-28T09:28:49;4.27;70.86
65374;SHT31;52070;53.760;9.678;2023-02-28T09:31:18;4.38;69.86
65374;SHT31;52070;53.760;9.678;2023-02-28T09:33:48;4.47;70.12
65374;SHT31;52070;53.760;9.678;2023-02-28T09:36:14;4.44;68.62
65374;SHT31;52070;53.760;9.678;2023-02-28T09:38:41;4.54;69.16
65374;SHT31;52070;53.760;9.678;2023-02-28T09:41:13;4.67;69.70
65374;SHT31;52070;53.760;9.678;2023-02-28T09:43:44;4.85;69.00
65374;SHT31;52070;53.760;9.678;2023-02-28T09:46:26;4.93;67.23
65374;SHT31;52070;53.760;9.678;2023-02-28T09:48:55;5.08;67.06
65374;SHT31;52070;53.760;9.678;2023-02-28T09:51:40;5.35;66.73
65374;SHT31;52070;53.760;9.678;2023-02-28T09:54:13;5.61;65.72
65374;SHT31;52070;53.760;9.678;2023-02-28T09:56:45;5.71;64.37
65374;SHT31;52070;53.760;9.678;2023-02-28T09:59:29;6.15;65.51
65374;SHT31;52070;53.760;9.678;2023-02-28T10:02:04;6.50;63.64
65374;SHT31;52070;53.760;9.678;2023-02-28T10:04:42;6.85;62.31
65374;SHT31;52070;53.760;9.678;2023-02-28T10:07:19;6.44;60.71
65374;SHT31;52070;53.760;9.678;2023-02-28T10:09:53;6.87;60.48
65374;SHT31;52070;53.760;9.678;2023-02-28T10:12:20;7.07;59.57
65374;SHT31;52070;53.760;9.678;2023-02-28T10:14:51;7.57;62.47
65374;SHT31;52070;53.760;9.678;2023-02-28T10:17:21;7.41;56.77
65374;SHT31;52070;53.760;9.678;2023-02-28T10:19:57;7.19;58.34
65374;SHT31;52070;53.760;9.678;2023-02-28T10:22:28;7.26;59.18
65374;SHT31;52070;53.760;9.678;2023-02-28T10:24:58;7.57;60.70
65374;SHT31;52070;53.760;9.678;2023-02-28T10:27:31;7.37;56.72
65374;SHT31;52070;53.760;9.678;2023-02-28T10:29:59;7.32;56.71
65374;SHT31;52070;53.760;9.678;2023-02-28T10:32:28;7.55;57.59
65374;SHT31;52070;53.760;9.678;2023-02-28T10:35:00;7.75;55.90
65374;SHT31;52070;53.760;9.678;2023-02-28T10:37:27;7.75;55.04
65374;SHT31;52070;53.760;9.678;2023-02-28T10:39:54;7.68;56.92
65374;SHT31;52070;53.760;9.678;2023-02-28T10:42:24;8.17;54.95
65374;SHT31;52070;53.760;9.678;2023-02-28T10:45:12;8.23;53.55
65374;SHT31;52070;53.760;9.678;2023-02-28T10:47:49;8.37;56.60
65374;SHT31;52070;53.760;9.678;2023-02-28T10:50:30;8.16;54.42
65374;SHT31;52070;53.760;9.678;2023-02-28T10:53:10;8.21;53.28
65374;SHT31;52070;53.760;9.678;2023-02-28T10:55:40;8.60;56.00
65374;SHT31;52070;53.760;9.678;2023-02-28T10:58:20;8.88;53.56
65374;SHT31;52070;53.760;9.678;2023-02-28T11:00:48;9.34;52.68
65374;SHT31;52070;53.760;9.678;2023-02-28T11:03:24;9.07;49.96
65374;SHT31;52070;53.760;9.678;2023-02-28T11:05:53;9.51;52.71
65374;SHT31;52070;53.760;9.678;2023-02-28T11:08:20;9.86;50.75
65374;SHT31;52070;53.760;9.678;2023-02-28T11:10:48;9.86;50.37
65374;SHT31;52070;53.760;9.678;2023-02-28T11:13:21;10.12;46.92
65374;SHT31;52070;53.760;9.678;2023-02-28T11:15:53;10.04;46.19
65374;SHT31;52070;53.760;9.678;2023-02-28T11:18:27;10.44;50.16
65374;SHT31;52070;53.760;9.678;2023-02-28T11:20:59;11.02;51.74
65374;SHT31;52070;53.760;9.678;2023-02-28T11:23:30;11.60;49.99
65374;SHT31;52070;53.760;9.678;2023-02-28T11:26:00;12.07;50.10
65374;SHT31;52070;53.760;9.678;2023-02-28T11:28:30;12.21;47.21
65374;SHT31;52070;53.760;9.678;2023-02-28T11:31:13;12.08;42.45
65374;SHT31;52070;53.760;9.678;2023-02-28T11:33:42;12.10;42.72
65374;SHT31;52070;53.760;9.678;2023-02-28T11:36:14;11.44;42.41
65374;SHT31;52070;53.760;9.678;2023-02-28T11:38:42;10.89;44.77
65374;SHT31;52070;53.760;9.678;2023-02-28T11:41:27;10.79;43.35
65374;SHT31;52070;53.760;9.678;2023-02-28T11:44:10;10.51;46.19
65374;SHT31;52070;53.760;9.678;2023-02-28T11:46:41;10.78;43.23
65374;SHT31;52070;53.760;9.678;2023-02-28T11:49:22;10.04;45.06
65374;SHT31;52070;53.760;9.678;2023-02-28T11:51:59;10.07;45.98
65374;SHT31;52070;53.760;9.678;2023-02-28T11:54:57;10.00;45.07
65374;SHT31;52070;53.760;9.678;2023-02-28T11:57:35;10.34;44.60
65374;SHT31;52070;53.760;9.678;2023-02-28T12:00:11;10.84;44.08
65374;SHT31;52070;53.760;9.678;2023-02-28T12:02:54;11.11;44.01
65374;SHT31;52070;53.760;9.678;2023-02-28T12:05:29;11.19;41.28
65374;SHT31;52070;53.760;9.678;2023-02-28T12:08:09;11.46;43.89
65374;SHT31;52070;53.760;9.678;2023-02-28T12:10:52;11.87;43.14
65374;SHT31;52070;53.760;9.678;2023-02-28T12:13:26;11.89;40.78
65374;SHT31;52070;53.760;9.678;2023-02-28T12:16:16;11.44;40.08
65374;SHT31;52070;53.760;9.678;2023-02-28T12:18:56;11.42;44.67
65374;SHT31;52070;53.760;9.678;2023-02-28T12:21:33;11.42;40.37
65374;SHT31;52070;53.760;9.678;2023-02-28T12:24:21;11.65;42.62
65374;SHT31;52070;53.760;9.678;2023-02-28T12:26:56;11.73;43.15
65374;SHT31;52070;53.760;9.678;2023-02-28T12:29:26;11.56;42.36
65374;SHT31;52070;53.760;9.678;2023-02-28T12:31:58;11.79;42.42
65374;SHT31;52070;53.760;9.678;2023-02-28T12:34:30;12.31;43.48
65374;SHT31;52070;53.760;9.678;2023-02-28T12:37:02;12.47;40.05
65374;SHT31;52070;53.760;9.678;2023-02-28T12:39:35;12.35;42.12
65374;SHT31;52070;53.760;9.678;2023-02-28T12:42:08;12.52;39.13
65374;SHT31;52070;53.760;9.678;2023-02-28T12:44:43;12.37;37.64
65374;SHT31;52070;53.760;9.678;2023-02-28T12:47:14;12.51;41.65
65374;SHT31;52070;53.760;9.678;2023-02-28T12:49:42;12.69;40.71
65374;SHT31;52070;53.760;9.678;2023-02-28T12:52:13;12.65;39.09
65374;SHT31;52070;53.760;9.678;2023-02-28T12:54:49;12.88;37.74
65374;SHT31;52070;53.760;9.678;2023-02-28T12:57:24;12.92;36.23
65374;SHT31;52070;53.760;9.678;2023-02-28T12:59:55;12.72;40.82
65374;SHT31;52070;53.760;9.678;2023-02-28T13:02:54;12.58;36.59
65374;SHT31;52070;53.760;9.678;2023-02-28T13:05:49;12.08;34.31
65374;SHT31;52070;53.760;9.678;2023-02-28T13:08:31;11.83;35.06
65374;SHT31;52070;53.760;9.678;2023-02-28T13:11:04;11.70;36.44
65374;SHT31;52070;53.760;9.678;2023-02-28T13:13:31;11.90;38.92
65374;SHT31;52070;53.760;9.678;2023-02-28T13:16:04;12.23;37.46
65374;SHT31;52070;53.760;9.678;2023-02-28T13:18:34;12.35;36.01
65374;SHT31;52070;53.760;9.678;2023-02-28T13:21:04;11.26;36.25
65374;SHT31;52070;53.760;9.678;2023-02-28T13:23:38;10.98;38.09
65374;SHT31;52070;53.760;9.678;2023-02-28T13:26:07;11.46;38.88
65374;SHT31;52070;53.760;9.678;2023-02-28T13:29:02;11.97;39.36
65374;SHT31;52070;53.760;9.678;2023-02-28T13:31:30;12.31;37.12
65374;SHT31;52070;53.760;9.678;2023-02-28T13:34:14;12.24;35.90
65374;SHT31;52070;53.760;9.678;2023-02-28T13:36:41;12.14;34.72
65374;SHT31;52070;53.760;9.678;2023-02-28T13:39:46;12.14;34.22
65374;SHT31;52070;53.760;9.678;2023-02-28T13:42:32;12.13;40.01
65374;SHT31;52070;53.760;9.678;2023-02-28T13:45:24;12.28;36.41
65374;SHT31;52070;53.760;9.678;2023-02-28T13:47:53;12.61;38.00
65374;SHT31;52070;53.760;9.678;2023-02-28T13:50:29;12.91;38.94
65374;SHT31;52070;53.760;9.678;2023-02-28T13:56:03;11.91;41.48
65374;SHT31;52070;53.760;9.678;2023-02-28T13:58:41;12.48;40.76
65374;SHT31;52070;53.760;9.678;2023-02-28T14:01:26;12.42;38.43
65374;SHT31;52070;53.760;9.678;2023-02-28T14:04:23;12.59;35.47
65374;SHT31;52070;53.760;9.678;2023-02-28T14:06:58;12.65;37.43
65374;SHT31;52070;53.760;9.678;2023-02-28T14:09:28;12.12;37.31
65374;SHT31;52070;53.760;9.678;2023-02-28T14:11:56;11.76;39.72
65374;SHT31;52070;53.760;9.678;2023-02-28T14:14:54;11.98;39.26
65374;SHT31;52070;53.760;9.678;2023-02-28T14:17:22;12.00;38.65
65374;SHT31;52070;53.760;9.678;2023-02-28T14:19:51;11.80;39.64
65374;SHT31;52070;53.760;9.678;2023-02-28T14:22:38;11.58;40.21
65374;SHT31;52070;53.760;9.678;2023-02-28T14:25:18;11.46;38.49
65374;SHT31;52070;53.760;9.678;2023-02-28T14:27:50;11.23;40.42
65374;SHT31;52070;53.760;9.678;2023-02-28T14:30:43;11.47;40.35
65374;SHT31;52070;53.760;9.678;2023-02-28T14:33:23;11.70;39.68
65374;SHT31;52070;53.760;9.678;2023-02-28T14:36:03;11.69;39.31
65374;SHT31;52070;53.760;9.678;2023-02-28T14:38:33;11.60;38.01
65374;SHT31;52070;53.760;9.678;2023-02-28T14:41:06;11.31;38.69
65374;SHT31;52070;53.760;9.678;2023-02-28T14:43:48;11.31;41.55
65374;SHT31;52070;53.760;9.678;2023-02-28T14:46:17;11.65;39.23
65374;SHT31;52070;53.760;9.678;2023-02-28T14:48:45;11.84;38.59
65374;SHT31;52070;53.760;9.678;2023-02-28T14:51:18;11.98;38.72
65374;SHT31;52070;53.760;9.678;2023-02-28T14:53:49;11.96;37.79
65374;SHT31;52070;53.760;9.678;2023-02-28T14:56:21;12.04;40.21
65374;SHT31;52070;53.760;9.678;2023-02-28T14:58:53;11.72;40.57
65374;SHT31;52070;53.760;9.678;2023-02-28T15:01:23;11.40;42.57
65374;SHT31;52070;53.760;9.678;2023-02-28T15:03:57;11.55;42.02
65374;SHT31;52070;53.760;9.678;2023-02-28T15:06:25;11.67;42.34
65374;SHT31;52070;53.760;9.678;2023-02-28T15:09:07;11.33;43.20
65374;SHT31;52070;53.760;9.678;2023-02-28T15:11:35;11.43;42.29
65374;SHT31;52070;53.760;9.678;2023-02-28T15:14:02;11.35;43.28
65374;SHT31;52070;53.760;9.678;2023-02-28T15:16:34;11.65;42.18
65374;SHT31;52070;53.760;9.678;2023-02-28T15:19:03;11.84;41.24
65374;SHT31;52070;53.760;9.678;2023-02-28T15:21:33;12.03;40.04
65374;SHT31;52070;53.760;9.678;2023-02-28T15:24:03;11.63;38.95
65374;SHT31;52070;53.760;9.678;2023-02-28T15:26:33;11.63;40.56
65374;SHT31;52070;53.760;9.678;2023-02-28T15:29:04;11.52;40.63
65374;SHT31;52070;53.760;9.678;2023-02-28T15:31:35;11.46;42.83
65374;SHT31;52070;53.760;9.678;2023-02-28T15:34:15;11.39;42.31
65374;SHT31;52070;53.760;9.678;2023-02-28T15:36:44;11.43;41.73
65374;SHT31;52070;53.760;9.678;2023-02-28T15:39:19;11.26;40.93
65374;SHT31;52070;53.760;9.678;2023-02-28T15:41:46;10.94;41.75
65374;SHT31;52070;53.760;9.678;2023-02-28T15:44:14;10.74;41.07
65374;SHT31;52070;53.760;9.678;2023-02-28T15:46:53;10.51;41.26
65374;SHT31;52070;53.760;9.678;2023-02-28T15:49:21;10.24;41.85
65374;SHT31;52070;53.760;9.678;2023-02-28T15:51:50;9.93;41.66
65374;SHT31;52070;53.760;9.678;2023-02-28T15:54:21;9.69;41.29
65374;SHT31;52070;53.760;9.678;2023-02-28T15:56:52;9.53;46.01
65374;SHT31;52070;53.760;9.678;2023-02-28T15:59:21;9.41;44.19
65374;SHT31;52070;53.760;9.678;2023-02-28T16:05:18;9.01;44.94
65374;SHT31;52070;53.760;9.678;2023-02-28T16:07:46;8.81;45.42
65374;SHT31;52070;53.760;9.678;2023-02-28T16:10:14;8.50;47.65
65374;SHT31;52070;53.760;9.678;2023-02-28T16:12:41;8.26;48.97
65374;SHT31;52070;53.760;9.678;2023-02-28T16:15:18;8.13;49.74